Wooldridge, Missouri
Current Conditions -  °F | °C
As of 8:55 AM on Monday 22 Dec 2014 (Local Time) from KVER Reporting Station
Drizzle Drizzle  
Wind Chill: 37°   Ceiling: 2500
Heat Index: 41°   Visibility: 7mi
Dew Point: 40°   Wind: 7mph
Humidity: 97%   Direction: 130°SE
Pressure: 29.65"   Gusts: NA
Location:  38.91°N, 92.52°W
Report Text: KVER 221455Z AUTO 13006KT 7SM -DZ SCT010 OVC025 05/05 A2965 RMK AO2 T00510047
Loading
Personal Weather Stations






























Interactive Weather Map New forecast layout! Learn more

10-Day Weather Forecast

Advertisements
Track Severe Weather on mobile